createdAt,value
2018-08-20T00:00:17.164Z,16.83
2018-08-20T00:02:45.802Z,15.63
2018-08-20T00:05:14.341Z,28.63
2018-08-20T00:07:42.845Z,18.43
2018-08-20T00:10:11.764Z,15.90
2018-08-20T00:12:40.257Z,12.00
2018-08-20T00:15:08.745Z,9.37
2018-08-20T00:17:37.256Z,11.27
2018-08-20T00:20:06.753Z,14.80
2018-08-20T00:22:35.433Z,17.93
2018-08-20T00:25:12.190Z,12.40
2018-08-20T00:27:40.945Z,11.07
2018-08-20T00:30:12.524Z,16.97
2018-08-20T00:32:42.937Z,18.57
2018-08-20T00:35:13.046Z,10.27
2018-08-20T00:37:45.536Z,13.17
2018-08-20T00:40:14.066Z,14.83
2018-08-20T00:42:42.714Z,18.70
2018-08-20T00:45:11.754Z,12.90
2018-08-20T00:47:40.250Z,17.43
2018-08-20T00:50:09.808Z,16.80
2018-08-20T00:52:38.549Z,12.80
2018-08-20T00:55:09.179Z,13.27
2018-08-20T00:57:37.718Z,13.97
2018-08-20T01:00:06.893Z,14.20
2018-08-20T01:02:35.490Z,15.37
2018-08-20T01:05:04.107Z,17.50
2018-08-20T01:07:32.661Z,16.27
2018-08-20T01:10:01.146Z,15.10
2018-08-20T01:12:29.707Z,14.07
2018-08-20T01:14:58.192Z,14.10
2018-08-20T01:17:26.692Z,17.10
2018-08-20T01:19:55.153Z,12.23
2018-08-20T01:22:23.645Z,17.00
2018-08-20T01:24:52.140Z,15.67
2018-08-20T01:27:25.889Z,15.57
2018-08-20T01:29:54.436Z,22.03
2018-08-20T01:32:22.909Z,17.40
2018-08-20T01:34:51.374Z,18.43
2018-08-20T01:37:20.658Z,18.23
2018-08-20T01:39:49.759Z,23.30
2018-08-20T01:42:18.813Z,18.93
2018-08-20T01:44:47.860Z,19.13
2018-08-20T01:47:16.365Z,15.43
2018-08-20T01:49:44.857Z,22.97
2018-08-20T01:52:13.376Z,30.90
2018-08-20T01:54:41.845Z,25.10
2018-08-20T01:57:10.337Z,19.37
2018-08-20T01:59:39.281Z,20.63
2018-08-20T02:02:07.753Z,19.83
2018-08-20T02:04:36.292Z,15.87
2018-08-20T02:07:04.844Z,14.70
2018-08-20T02:09:33.344Z,19.50
2018-08-20T02:12:02.111Z,22.43
2018-08-20T02:14:30.592Z,23.90
2018-08-20T02:16:59.092Z,21.20
2018-08-20T02:19:27.576Z,19.40
2018-08-20T02:21:56.123Z,24.73
2018-08-20T02:24:24.785Z,19.37
2018-08-20T02:26:53.303Z,22.03
2018-08-20T02:29:21.941Z,22.90
2018-08-20T02:31:50.513Z,28.87
2018-08-20T02:34:19.323Z,20.30
2018-08-20T02:36:47.895Z,29.13
2018-08-20T02:39:16.472Z,32.60
2018-08-20T02:41:44.977Z,26.70
2018-08-20T02:44:13.942Z,24.83
2018-08-20T02:46:48.614Z,26.47
2018-08-20T02:49:17.921Z,26.00
2018-08-20T02:51:47.583Z,26.00
2018-08-20T02:54:16.171Z,28.07
2018-08-20T02:56:44.739Z,32.60
2018-08-20T02:59:14.123Z,28.30
2018-08-20T03:01:42.735Z,27.93
2018-08-20T03:04:11.295Z,26.27
2018-08-20T03:06:40.018Z,26.63
2018-08-20T03:09:12.311Z,29.30
2018-08-20T03:11:40.839Z,30.10
2018-08-20T03:14:09.810Z,28.80
2018-08-20T03:16:38.849Z,29.07
2018-08-20T03:21:43.107Z,26.40
2018-08-20T03:24:11.625Z,28.53
2018-08-20T03:26:40.145Z,28.43
2018-08-20T03:29:08.775Z,31.70
2018-08-20T03:31:37.274Z,27.43
2018-08-20T03:34:06.422Z,25.10
2018-08-20T03:36:34.998Z,29.37
2018-08-20T03:39:04.450Z,26.20
2018-08-20T03:41:33.018Z,28.93
2018-08-20T03:44:01.567Z,27.43
2018-08-20T03:46:30.086Z,31.57
2018-08-20T03:48:58.589Z,30.93
2018-08-20T03:51:27.146Z,27.13
2018-08-20T03:53:55.638Z,29.30
2018-08-20T03:56:24.155Z,33.23
2018-08-20T03:58:52.718Z,30.90
2018-08-20T04:01:21.229Z,26.50
2018-08-20T04:03:49.819Z,33.63
2018-08-20T04:06:18.407Z,22.67
2018-08-20T04:08:47.782Z,30.53
2018-08-20T04:11:16.361Z,27.13
2018-08-20T04:13:44.828Z,27.50
2018-08-20T04:16:13.316Z,24.93
2018-08-20T04:18:41.816Z,26.93
2018-08-20T04:21:10.353Z,38.47
2018-08-20T04:23:38.838Z,25.90
2018-08-20T04:26:07.364Z,34.40
2018-08-20T04:28:36.082Z,26.43
2018-08-20T04:31:04.650Z,30.33
2018-08-20T04:33:33.166Z,30.23
2018-08-20T04:36:01.667Z,35.67
2018-08-20T04:38:30.175Z,31.40
2018-08-20T04:40:58.658Z,30.43
2018-08-20T04:43:27.208Z,31.23
2018-08-20T04:45:55.831Z,39.13
2018-08-20T04:48:24.327Z,35.27
2018-08-20T04:50:52.904Z,38.83
2018-08-20T04:53:21.361Z,32.77
2018-08-20T04:55:49.862Z,43.93
2018-08-20T04:58:18.573Z,36.10
2018-08-20T05:00:47.074Z,36.47
2018-08-20T05:03:16.662Z,41.27
2018-08-20T05:05:45.239Z,35.90
2018-08-20T05:08:13.810Z,31.17
2018-08-20T05:10:42.379Z,33.90
2018-08-20T05:13:10.935Z,40.43
2018-08-20T05:15:39.422Z,49.30
2018-08-20T05:18:07.999Z,39.43
2018-08-20T05:20:36.522Z,35.43
2018-08-20T05:23:05.131Z,46.67
2018-08-20T05:25:33.743Z,39.67
2018-08-20T05:28:02.301Z,34.00
2018-08-20T05:30:30.873Z,38.13
2018-08-20T05:32:59.416Z,40.70
2018-08-20T05:35:27.940Z,41.00
2018-08-20T05:37:56.505Z,44.13
2018-08-20T05:40:25.029Z,40.67
2018-08-20T05:42:53.590Z,31.63
2018-08-20T05:45:22.268Z,36.53
2018-08-20T05:47:50.866Z,34.33
2018-08-20T05:50:19.449Z,35.60
2018-08-20T05:52:47.986Z,38.00
2018-08-20T05:55:16.578Z,39.67
2018-08-20T05:57:45.345Z,30.10
2018-08-20T06:00:16.302Z,46.33
2018-08-20T06:02:45.161Z,39.40
2018-08-20T06:05:13.726Z,37.70
2018-08-20T06:07:42.715Z,48.70
2018-08-20T06:10:12.121Z,40.50
2018-08-20T06:12:40.621Z,36.60
2018-08-20T06:15:12.112Z,36.40
2018-08-20T06:17:40.778Z,28.70
2018-08-20T06:20:15.274Z,42.17
2018-08-20T06:22:43.850Z,47.00
2018-08-20T06:25:13.309Z,40.57
2018-08-20T06:27:42.607Z,31.43
2018-08-20T06:30:13.899Z,38.17
2018-08-20T06:32:42.442Z,37.17
2018-08-20T06:35:12.050Z,33.17
2018-08-20T06:37:40.801Z,38.17
2018-08-20T06:40:12.757Z,33.77
2018-08-20T06:42:41.317Z,37.23
2018-08-20T06:45:15.511Z,24.77
2018-08-20T06:47:45.047Z,35.93
2018-08-20T06:50:14.187Z,34.00
2018-08-20T06:52:43.849Z,32.77
2018-08-20T06:55:13.154Z,25.57
2018-08-20T06:57:42.082Z,35.13
2018-08-20T07:00:11.588Z,35.87
2018-08-20T07:02:40.628Z,28.37
2018-08-20T07:05:09.798Z,35.80
2018-08-20T07:07:39.649Z,28.27
2018-08-20T07:10:10.190Z,27.73
2018-08-20T07:12:39.107Z,28.33
2018-08-20T07:15:08.895Z,31.33
2018-08-20T07:17:37.691Z,31.90
2018-08-20T07:20:08.017Z,25.93
2018-08-20T07:22:36.579Z,31.73
2018-08-20T07:25:06.355Z,33.00
2018-08-20T07:27:35.693Z,22.20
2018-08-20T07:30:05.090Z,32.93
2018-08-20T07:32:33.614Z,23.97
2018-08-20T07:35:02.197Z,24.80
2018-08-20T07:37:30.788Z,31.23
2018-08-20T07:39:59.348Z,26.63
2018-08-20T07:42:27.927Z,22.07
2018-08-20T07:44:56.634Z,28.30
2018-08-20T07:47:25.126Z,29.97
2018-08-20T07:49:53.713Z,24.60
2018-08-20T07:52:22.265Z,18.07
2018-08-20T07:54:57.586Z,22.40
2018-08-20T07:57:26.118Z,18.60
2018-08-20T07:59:54.966Z,16.67
2018-08-20T08:02:23.534Z,22.90
2018-08-20T08:04:52.064Z,18.37
2018-08-20T08:07:20.587Z,18.83
2018-08-20T08:09:49.195Z,10.03
2018-08-20T08:12:17.797Z,19.73
2018-08-20T08:14:46.358Z,20.80
2018-08-20T08:17:14.983Z,16.50
2018-08-20T08:19:43.620Z,11.67
2018-08-20T08:22:12.363Z,9.13
2018-08-20T08:24:40.985Z,10.53
2018-08-20T08:27:09.659Z,8.97
2018-08-20T08:29:38.282Z,11.30
2018-08-20T08:32:06.959Z,11.23
2018-08-20T08:34:35.555Z,10.93
2018-08-20T08:37:04.153Z,10.53
2018-08-20T08:39:32.642Z,11.10
2018-08-20T08:42:01.167Z,16.30
2018-08-20T08:44:29.714Z,6.50
2018-08-20T08:46:58.290Z,7.33
2018-08-20T08:49:26.802Z,10.37
2018-08-20T08:51:55.354Z,10.50
2018-08-20T08:54:24.109Z,11.53
2018-08-20T08:56:52.641Z,7.60
2018-08-20T08:59:21.157Z,7.43
2018-08-20T09:01:49.865Z,6.93
2018-08-20T09:04:18.385Z,6.10
2018-08-20T09:06:47.063Z,4.67
2018-08-20T09:09:15.800Z,5.03
2018-08-20T09:11:44.284Z,4.87
2018-08-20T09:14:12.775Z,2.80
2018-08-20T09:16:41.299Z,2.60
2018-08-20T09:19:09.846Z,4.03
2018-08-20T09:21:38.478Z,3.10
2018-08-20T09:24:07.051Z,1.77
2018-08-20T09:26:35.616Z,3.40
2018-08-20T09:29:04.157Z,1.57
2018-08-20T09:31:32.714Z,4.17
2018-08-20T09:34:01.267Z,1.60
2018-08-20T09:36:29.773Z,2.47
2018-08-20T09:38:58.286Z,1.30
2018-08-20T09:41:27.592Z,3.17
2018-08-20T09:43:56.217Z,3.57
2018-08-20T09:46:24.811Z,1.57
2018-08-20T09:48:53.646Z,1.70
2018-08-20T09:51:22.144Z,3.20
2018-08-20T09:53:50.729Z,2.30
2018-08-20T09:56:19.266Z,2.00
2018-08-20T09:58:48.223Z,2.03
2018-08-20T10:01:16.810Z,1.03
2018-08-20T10:03:45.718Z,1.10
2018-08-20T10:06:15.347Z,1.40
2018-08-20T10:08:44.449Z,2.07
2018-08-20T10:11:13.881Z,1.00
2018-08-20T10:13:42.486Z,1.30
2018-08-20T10:16:11.405Z,1.10
2018-08-20T10:18:40.433Z,1.63
2018-08-20T10:21:08.996Z,1.10
2018-08-20T10:23:37.782Z,1.07
2018-08-20T10:26:07.116Z,1.40
2018-08-20T10:28:35.734Z,0.97
2018-08-20T10:31:04.426Z,1.63
2018-08-20T10:33:32.930Z,0.90
2018-08-20T10:36:01.537Z,1.90
2018-08-20T10:38:30.162Z,1.20
2018-08-20T10:40:58.965Z,3.40
2018-08-20T10:43:27.466Z,0.80
2018-08-20T10:46:01.330Z,0.70
2018-08-20T10:48:29.915Z,0.90
2018-08-20T10:50:58.563Z,0.90
2018-08-20T10:53:27.215Z,1.20
2018-08-20T10:55:55.785Z,1.03
2018-08-20T10:58:24.271Z,0.90
2018-08-20T11:00:53.999Z,1.20
2018-08-20T11:03:22.721Z,1.47
2018-08-20T11:05:51.204Z,1.10
2018-08-20T11:08:19.791Z,1.00
2018-08-20T11:10:55.755Z,4.83
2018-08-20T11:13:24.211Z,1.27
2018-08-20T11:15:52.928Z,0.83
2018-08-20T11:18:21.452Z,2.47
2018-08-20T11:20:50.003Z,0.90
2018-08-20T11:23:18.524Z,0.93
2018-08-20T11:25:47.294Z,1.03
2018-08-20T11:28:16.448Z,0.80
2018-08-20T11:30:45.094Z,1.27
2018-08-20T11:33:14.713Z,1.03
2018-08-20T11:35:43.227Z,0.80
2018-08-20T11:38:14.389Z,0.80
2018-08-20T11:40:42.974Z,1.27
2018-08-20T11:43:11.515Z,0.70
2018-08-20T11:45:40.063Z,1.20
2018-08-20T11:48:08.566Z,0.60
2018-08-20T11:50:37.077Z,0.70
2018-08-20T11:53:06.318Z,1.00
2018-08-20T11:55:34.911Z,0.60
2018-08-20T11:58:03.470Z,0.80
2018-08-20T12:00:32.228Z,1.20
2018-08-20T12:03:00.889Z,0.60
2018-08-20T12:05:29.392Z,0.80
2018-08-20T12:07:57.908Z,0.87
2018-08-20T12:10:26.493Z,1.03
2018-08-20T12:12:54.989Z,1.73
2018-08-20T12:15:23.595Z,0.60
2018-08-20T12:17:52.143Z,0.70
2018-08-20T12:20:20.623Z,0.97
2018-08-20T12:22:49.134Z,1.07
2018-08-20T12:25:17.673Z,1.20
2018-08-20T12:27:46.238Z,1.77
2018-08-20T12:30:15.184Z,0.90
2018-08-20T12:32:43.786Z,1.03
2018-08-20T12:35:12.271Z,0.87
2018-08-20T12:37:41.386Z,1.13
2018-08-20T12:40:09.897Z,1.90
2018-08-20T12:42:38.422Z,0.60
2018-08-20T12:45:07.490Z,0.87
2018-08-20T12:47:36.050Z,0.83
2018-08-20T12:50:05.325Z,1.17
2018-08-20T12:52:33.824Z,1.23
2018-08-20T12:55:02.399Z,1.43
2018-08-20T12:57:30.941Z,0.87
2018-08-20T12:59:59.706Z,1.93
2018-08-20T13:02:28.667Z,1.00
2018-08-20T13:04:57.189Z,2.07
2018-08-20T13:07:25.866Z,1.63
2018-08-20T13:09:54.340Z,1.23
2018-08-20T13:12:22.913Z,1.37
2018-08-20T13:14:51.442Z,0.90
2018-08-20T13:17:20.052Z,5.50
2018-08-20T13:19:48.634Z,1.30
2018-08-20T13:22:17.110Z,2.10
2018-08-20T13:24:45.668Z,8.90
2018-08-20T13:27:14.241Z,2.23
2018-08-20T13:29:43.250Z,1.00
2018-08-20T13:32:11.880Z,0.90
2018-08-20T13:34:40.540Z,3.90
2018-08-20T13:37:09.134Z,1.30
2018-08-20T13:39:37.651Z,1.43
2018-08-20T13:42:06.384Z,2.03
2018-08-20T13:44:35.003Z,1.07
2018-08-20T13:47:03.550Z,0.87
2018-08-20T13:49:32.108Z,0.90
2018-08-20T13:52:00.858Z,2.00
2018-08-20T13:54:29.437Z,1.00
2018-08-20T13:56:58.939Z,1.27
2018-08-20T13:59:27.466Z,1.57
2018-08-20T14:01:56.103Z,0.80
2018-08-20T14:04:24.811Z,0.90
2018-08-20T14:06:53.421Z,0.80
2018-08-20T14:09:21.953Z,1.47
2018-08-20T14:11:50.546Z,1.77
2018-08-20T14:14:19.227Z,2.40
2018-08-20T14:16:47.898Z,1.00
2018-08-20T14:19:16.509Z,0.80
2018-08-20T14:21:45.234Z,2.73
2018-08-20T14:24:13.799Z,1.67
2018-08-20T14:26:42.425Z,1.90
2018-08-20T14:29:11.574Z,1.83
2018-08-20T14:31:40.223Z,1.27
2018-08-20T14:34:08.877Z,1.00
2018-08-20T14:36:37.417Z,1.13
2018-08-20T14:39:07.346Z,6.33
2018-08-20T14:41:35.887Z,4.30
2018-08-20T14:44:04.463Z,2.67
2018-08-20T14:46:32.962Z,2.20
2018-08-20T14:49:01.503Z,1.10
2018-08-20T14:51:30.094Z,5.30
2018-08-20T14:53:58.782Z,1.97
2018-08-20T14:56:27.363Z,1.67
2018-08-20T14:58:55.899Z,1.30
2018-08-20T15:01:24.443Z,4.17
2018-08-20T15:03:53.354Z,2.17
2018-08-20T15:06:22.014Z,1.40
2018-08-20T15:08:50.655Z,2.90
2018-08-20T15:11:19.232Z,2.50
2018-08-20T15:13:47.997Z,1.70
2018-08-20T15:16:17.596Z,1.10
2018-08-20T15:18:46.089Z,1.30
2018-08-20T15:21:14.871Z,1.10
2018-08-20T15:23:46.139Z,2.03
2018-08-20T15:26:14.730Z,0.97
2018-08-20T15:28:43.758Z,0.80
2018-08-20T15:31:12.262Z,1.10
2018-08-20T15:33:40.874Z,0.90
2018-08-20T15:36:09.370Z,0.90
2018-08-20T15:38:37.883Z,0.80
2018-08-20T15:41:07.768Z,3.27
2018-08-20T15:43:36.258Z,1.47
2018-08-20T15:46:04.867Z,1.47
2018-08-20T15:48:33.381Z,0.70
2018-08-20T15:51:02.443Z,1.10
2018-08-20T15:53:33.059Z,0.80
2018-08-20T15:56:01.534Z,0.90
2018-08-20T15:58:30.107Z,1.90
2018-08-20T16:00:58.757Z,0.80
2018-08-20T16:03:27.378Z,2.20
2018-08-20T16:05:55.926Z,1.17
2018-08-20T16:08:24.604Z,1.87
2018-08-20T16:10:53.589Z,1.17
2018-08-20T16:13:22.500Z,1.77
2018-08-20T16:15:51.198Z,5.87
2018-08-20T16:18:19.751Z,1.57
2018-08-20T16:20:48.307Z,4.27
2018-08-20T16:23:16.819Z,1.33
2018-08-20T16:25:45.506Z,1.37
2018-08-20T16:28:14.223Z,1.67
2018-08-20T16:30:42.752Z,1.30
2018-08-20T16:33:11.331Z,4.00
2018-08-20T16:35:39.891Z,1.33
2018-08-20T16:38:08.578Z,1.23
2018-08-20T16:40:37.354Z,1.10
2018-08-20T16:43:06.121Z,6.20
2018-08-20T16:45:34.855Z,4.93
2018-08-20T16:48:03.391Z,2.43
2018-08-20T16:50:31.934Z,1.00
2018-08-20T16:53:00.770Z,1.77
2018-08-20T16:55:29.489Z,0.77
2018-08-20T16:57:58.031Z,1.33
2018-08-20T17:00:26.571Z,1.73
2018-08-20T17:02:55.163Z,2.50
2018-08-20T17:05:23.970Z,4.60
2018-08-20T17:07:52.495Z,1.63
2018-08-20T17:10:21.014Z,2.17
2018-08-20T17:12:49.657Z,1.37
2018-08-20T17:15:19.945Z,1.40
2018-08-20T17:17:48.433Z,2.40
2018-08-20T17:20:17.061Z,1.90
2018-08-20T17:22:45.646Z,2.60
2018-08-20T17:25:14.176Z,1.10
2018-08-20T17:27:48.705Z,2.30
2018-08-20T17:30:17.371Z,1.33
2018-08-20T17:32:45.926Z,2.10
2018-08-20T17:35:14.453Z,1.33
2018-08-20T17:37:43.024Z,1.83
2018-08-20T17:40:11.874Z,2.10
2018-08-20T17:42:40.398Z,1.30
2018-08-20T17:45:09.769Z,2.17
2018-08-20T17:47:40.258Z,3.07
2018-08-20T17:50:24.849Z,2.57
2018-08-20T17:52:53.451Z,1.03
2018-08-20T17:55:22.050Z,0.87
2018-08-20T17:57:50.619Z,1.20
2018-08-20T18:00:41.438Z,2.20
2018-08-20T18:03:18.274Z,2.40
2018-08-20T18:05:54.842Z,1.00
2018-08-20T18:08:24.521Z,4.40
2018-08-20T18:10:53.137Z,2.30
2018-08-20T18:13:38.502Z,2.47
2018-08-20T18:16:09.417Z,2.33
2018-08-20T18:18:38.694Z,0.70
2018-08-20T18:21:07.203Z,1.23
2018-08-20T18:23:36.427Z,1.20
2018-08-20T18:26:04.980Z,1.17
2018-08-20T18:28:43.533Z,3.63
2018-08-20T18:31:14.154Z,0.90
2018-08-20T18:33:43.923Z,1.57
2018-08-20T18:36:14.304Z,3.70
2018-08-20T18:38:49.435Z,2.97
2018-08-20T18:41:18.819Z,1.30
2018-08-20T18:43:48.428Z,0.70
2018-08-20T18:46:16.994Z,3.90
2018-08-20T18:48:46.156Z,1.87
2018-08-20T18:51:16.100Z,1.77
2018-08-20T18:53:44.737Z,1.23
2018-08-20T18:56:17.548Z,1.73
2018-08-20T18:58:46.471Z,2.03
2018-08-20T19:01:14.972Z,1.33
2018-08-20T19:03:46.035Z,1.20
2018-08-20T19:06:15.048Z,1.40
2018-08-20T19:08:44.405Z,5.97
2018-08-20T19:11:13.560Z,1.50
2018-08-20T19:13:42.926Z,2.33
2018-08-20T19:16:28.156Z,2.40
2018-08-20T19:18:57.190Z,7.40
2018-08-20T19:21:27.715Z,2.23
2018-08-20T19:23:58.278Z,1.60
2018-08-20T19:26:29.097Z,2.40
2018-08-20T19:28:57.798Z,1.37
2018-08-20T19:31:26.433Z,1.40
2018-08-20T19:33:54.917Z,1.00
2018-08-20T19:36:23.526Z,1.90
2018-08-20T19:38:52.075Z,2.00
2018-08-20T19:41:20.862Z,2.00
2018-08-20T19:43:52.070Z,3.00
2018-08-20T19:46:30.094Z,2.97
2018-08-20T19:49:04.436Z,2.43
2018-08-20T19:51:34.379Z,1.30
2018-08-20T19:54:02.979Z,1.33
2018-08-20T19:56:31.522Z,1.17
2018-08-20T19:59:00.055Z,3.03
2018-08-20T20:01:28.839Z,2.03
2018-08-20T20:03:57.414Z,1.57
2018-08-20T20:06:25.941Z,1.10
2018-08-20T20:08:54.456Z,3.50
2018-08-20T20:11:28.017Z,1.43
2018-08-20T20:13:58.884Z,1.70
2018-08-20T20:16:31.415Z,3.27
2018-08-20T20:19:00.054Z,3.13
2018-08-20T20:21:28.573Z,3.70
2018-08-20T20:23:57.205Z,1.93
2018-08-20T20:26:27.822Z,2.33
2018-08-20T20:28:56.626Z,2.07
2018-08-20T20:31:25.097Z,4.87
2018-08-20T20:33:53.893Z,5.83
2018-08-20T20:36:25.649Z,1.93
2018-08-20T20:38:54.702Z,6.37
2018-08-20T20:41:23.880Z,4.47
2018-08-20T20:43:52.933Z,2.37
2018-08-20T20:46:21.694Z,4.50
2018-08-20T20:48:50.270Z,2.73
2018-08-20T20:51:18.997Z,3.37
2018-08-20T20:53:47.886Z,3.10
2018-08-20T20:56:16.433Z,3.10
2018-08-20T20:58:45.631Z,5.07
2018-08-20T21:01:14.629Z,1.73
2018-08-20T21:03:43.236Z,6.17
2018-08-20T21:06:11.905Z,6.67
2018-08-20T21:08:45.693Z,1.93
2018-08-20T21:11:15.256Z,3.77
2018-08-20T21:13:44.257Z,6.23
2018-08-20T21:16:13.990Z,6.30
2018-08-20T21:18:45.082Z,2.83
2018-08-20T21:21:14.789Z,4.07
2018-08-20T21:23:43.414Z,3.50
2018-08-20T21:26:12.009Z,5.50
2018-08-20T21:28:42.845Z,3.27
2018-08-20T21:31:12.263Z,3.67
2018-08-20T21:33:41.550Z,1.70
2018-08-20T21:36:10.661Z,2.93
2018-08-20T21:38:39.188Z,1.40
2018-08-20T21:41:07.979Z,4.40
2018-08-20T21:43:40.722Z,2.40
2018-08-20T21:46:09.973Z,2.17
2018-08-20T21:48:38.942Z,3.37
2018-08-20T21:51:11.709Z,4.20
2018-08-20T21:53:40.293Z,5.80
2018-08-20T21:56:10.081Z,1.87
2018-08-20T21:58:40.085Z,3.53
2018-08-20T22:01:10.158Z,3.83
2018-08-20T22:03:38.865Z,4.93
2018-08-20T22:06:07.414Z,2.43
2018-08-20T22:08:35.990Z,2.23
2018-08-20T22:11:04.534Z,1.87
2018-08-20T22:13:33.112Z,4.40
2018-08-20T22:16:12.836Z,1.67
2018-08-20T22:18:44.667Z,3.53
2018-08-20T22:21:19.733Z,4.47
2018-08-20T22:23:48.382Z,3.27
2018-08-20T22:26:19.677Z,2.20
2018-08-20T22:28:50.645Z,3.37
2018-08-20T22:31:20.226Z,2.73
2018-08-20T22:33:55.818Z,4.40
2018-08-20T22:36:25.026Z,4.93
2018-08-20T22:38:54.656Z,4.30
2018-08-20T22:41:24.445Z,4.27
2018-08-20T22:43:52.957Z,3.33
2018-08-20T22:46:22.486Z,3.10
2018-08-20T22:48:54.658Z,3.73
2018-08-20T22:51:24.604Z,3.00
2018-08-20T22:53:55.470Z,9.33
2018-08-20T22:56:26.365Z,1.70
2018-08-20T22:58:57.648Z,5.27
2018-08-20T23:01:26.261Z,8.27
2018-08-20T23:03:54.950Z,3.40
2018-08-20T23:06:23.757Z,4.40
2018-08-20T23:08:52.267Z,5.17
2018-08-20T23:11:37.038Z,3.07
2018-08-20T23:14:06.521Z,5.67
2018-08-20T23:16:35.326Z,4.20
2018-08-20T23:19:04.383Z,1.87
2018-08-20T23:21:38.184Z,5.40
2018-08-20T23:24:07.602Z,4.33
2018-08-20T23:26:36.384Z,3.40
2018-08-20T23:29:05.006Z,4.30
2018-08-20T23:31:33.730Z,4.37
2018-08-20T23:34:02.294Z,3.73
2018-08-20T23:36:30.949Z,2.83
2018-08-20T23:38:59.561Z,3.03
2018-08-20T23:41:28.047Z,2.40
2018-08-20T23:43:59.359Z,3.90
2018-08-20T23:46:37.703Z,2.03
2018-08-20T23:49:06.240Z,3.50
2018-08-20T23:51:34.853Z,2.00
2018-08-20T23:54:03.570Z,1.90
2018-08-20T23:56:32.302Z,2.13
2018-08-20T23:59:01.090Z,2.30
